createdAt,value
2018-10-09T00:01:59.366Z,9.63
2018-10-09T00:04:27.363Z,9.83
2018-10-09T00:06:55.408Z,10.73
2018-10-09T00:09:23.414Z,19.47
2018-10-09T00:11:51.426Z,12.53
2018-10-09T00:14:19.414Z,12.17
2018-10-09T00:16:47.818Z,10.30
2018-10-09T00:19:15.898Z,14.10
2018-10-09T00:21:43.918Z,17.23
2018-10-09T00:24:11.993Z,12.30
2018-10-09T00:26:40.077Z,14.97
2018-10-09T00:29:08.097Z,13.30
2018-10-09T00:31:37.034Z,17.07
2018-10-09T00:34:05.132Z,14.47
2018-10-09T00:36:33.342Z,11.03
2018-10-09T00:39:01.433Z,14.67
2018-10-09T00:41:29.501Z,14.37
2018-10-09T00:43:58.042Z,13.97
2018-10-09T00:46:29.190Z,13.67
2018-10-09T00:48:57.352Z,13.03
2018-10-09T00:51:25.374Z,14.33
2018-10-09T00:53:53.387Z,15.83
2018-10-09T00:56:21.476Z,15.73
2018-10-09T00:58:49.553Z,13.43
2018-10-09T01:01:17.570Z,14.63
2018-10-09T01:03:45.577Z,23.63
2018-10-09T01:06:13.626Z,12.03
2018-10-09T01:08:41.623Z,15.33
2018-10-09T01:11:09.815Z,12.30
2018-10-09T01:13:37.890Z,14.07
2018-10-09T01:16:05.906Z,14.17
2018-10-09T01:18:33.915Z,14.47
2018-10-09T01:21:01.985Z,13.27
2018-10-09T01:23:30.546Z,12.10
2018-10-09T01:25:58.559Z,13.33
2018-10-09T01:28:26.812Z,13.43
2018-10-09T01:30:54.861Z,16.87
2018-10-09T01:33:23.193Z,18.43
2018-10-09T01:35:51.399Z,16.07
2018-10-09T01:38:19.412Z,12.87
2018-10-09T01:40:47.426Z,15.63
2018-10-09T01:43:15.446Z,20.37
2018-10-09T01:45:43.710Z,13.80
2018-10-09T01:48:11.788Z,14.80
2018-10-09T01:50:39.903Z,16.40
2018-10-09T01:53:07.919Z,15.57
2018-10-09T01:55:35.917Z,16.10
2018-10-09T01:58:04.061Z,12.47
2018-10-09T02:00:32.102Z,18.23
2018-10-09T02:03:00.231Z,16.57
2018-10-09T02:05:28.394Z,14.03
2018-10-09T02:07:56.498Z,14.47
2018-10-09T02:10:27.530Z,16.33
2018-10-09T02:12:55.679Z,12.10
2018-10-09T02:15:23.758Z,14.20
2018-10-09T02:17:51.830Z,12.93
2018-10-09T02:20:22.882Z,15.20
2018-10-09T02:22:50.926Z,14.53
2018-10-09T02:25:18.985Z,17.17
2018-10-09T02:27:46.978Z,18.47
2018-10-09T02:30:15.056Z,13.50
2018-10-09T02:32:43.073Z,14.93
2018-10-09T02:35:11.198Z,15.93
2018-10-09T02:37:39.245Z,19.73
2018-10-09T02:40:07.307Z,13.33
2018-10-09T02:42:35.338Z,16.93
2018-10-09T02:45:03.582Z,17.53
2018-10-09T02:47:32.611Z,17.93
2018-10-09T02:50:00.633Z,17.43
2018-10-09T02:52:29.218Z,11.13
2018-10-09T02:54:57.234Z,14.00
2018-10-09T02:57:25.286Z,19.30
2018-10-09T02:59:53.827Z,12.47
2018-10-09T03:02:21.854Z,19.10
2018-10-09T03:04:49.873Z,20.73
2018-10-09T03:07:17.926Z,15.90
2018-10-09T03:09:46.012Z,18.60
2018-10-09T03:12:14.117Z,18.10
2018-10-09T03:14:42.158Z,19.73
2018-10-09T03:17:10.222Z,19.43
2018-10-09T03:19:38.228Z,16.10
2018-10-09T03:22:06.390Z,24.93
2018-10-09T03:24:34.398Z,19.90
2018-10-09T03:27:02.413Z,19.10
2018-10-09T03:29:30.479Z,13.63
2018-10-09T03:31:58.527Z,16.30
2018-10-09T03:34:26.579Z,17.37
2018-10-09T03:36:54.844Z,17.90
2018-10-09T03:39:22.866Z,17.13
2018-10-09T03:41:50.862Z,16.37
2018-10-09T03:44:18.918Z,16.87
2018-10-09T03:46:46.939Z,18.97
2018-10-09T03:49:16.437Z,15.10
2018-10-09T03:51:44.761Z,17.67
2018-10-09T03:54:12.876Z,15.33
2018-10-09T03:56:40.943Z,18.30
2018-10-09T03:59:09.287Z,18.57
2018-10-09T04:01:37.341Z,13.57
2018-10-09T04:04:05.386Z,14.90
2018-10-09T04:06:33.418Z,20.60
2018-10-09T04:09:01.541Z,16.77
2018-10-09T04:11:29.493Z,15.67
2018-10-09T04:13:57.580Z,15.53
2018-10-09T04:16:25.679Z,15.33
2018-10-09T04:18:53.732Z,20.37
2018-10-09T04:21:21.864Z,24.50
2018-10-09T04:23:49.861Z,21.37
2018-10-09T04:26:17.999Z,16.97
2018-10-09T04:28:46.350Z,19.93
2018-10-09T04:31:14.358Z,24.23
2018-10-09T04:33:42.486Z,17.27
2018-10-09T04:36:10.760Z,15.93
2018-10-09T04:38:38.793Z,18.90
2018-10-09T04:41:06.874Z,23.20
2018-10-09T04:43:35.186Z,16.67
2018-10-09T04:46:03.188Z,18.87
2018-10-09T04:48:31.945Z,18.40
2018-10-09T04:51:00.229Z,26.30
2018-10-09T04:53:28.234Z,20.20
2018-10-09T04:55:56.233Z,23.17
2018-10-09T04:58:24.286Z,19.97
2018-10-09T05:00:52.403Z,23.93
2018-10-09T05:03:20.374Z,21.23
2018-10-09T05:05:48.554Z,21.50
2018-10-09T05:08:16.722Z,21.67
2018-10-09T05:10:44.789Z,22.47
2018-10-09T05:13:13.467Z,26.60
2018-10-09T05:15:41.454Z,20.10
2018-10-09T05:18:09.518Z,20.67
2018-10-09T05:20:37.799Z,24.13
2018-10-09T05:23:06.319Z,24.70
2018-10-09T05:25:34.325Z,27.53
2018-10-09T05:28:02.421Z,22.87
2018-10-09T05:30:30.466Z,29.47
2018-10-09T05:32:58.527Z,27.17
2018-10-09T05:35:26.800Z,26.30
2018-10-09T05:37:54.961Z,28.47
2018-10-09T05:40:23.060Z,31.77
2018-10-09T05:42:51.442Z,30.17
2018-10-09T05:45:19.471Z,27.30
2018-10-09T05:47:47.510Z,27.63
2018-10-09T05:50:16.486Z,27.63
2018-10-09T05:52:44.821Z,33.00
2018-10-09T05:55:12.861Z,25.10
2018-10-09T05:57:41.099Z,30.43
2018-10-09T06:00:09.490Z,26.00
2018-10-09T06:02:37.556Z,28.60
2018-10-09T06:05:06.358Z,26.13
2018-10-09T06:07:34.549Z,24.10
2018-10-09T06:10:02.607Z,28.03
2018-10-09T06:12:30.794Z,27.13
2018-10-09T06:14:58.814Z,26.87
2018-10-09T06:17:26.910Z,26.20
2018-10-09T06:19:54.954Z,32.13
2018-10-09T06:22:23.173Z,27.30
2018-10-09T06:24:51.079Z,23.27
2018-10-09T06:27:20.042Z,29.63
2018-10-09T06:29:48.060Z,33.83
2018-10-09T06:32:16.062Z,27.90
2018-10-09T06:34:44.126Z,32.60
2018-10-09T06:37:12.193Z,28.37
2018-10-09T06:39:40.354Z,25.27
2018-10-09T06:42:08.929Z,29.60
2018-10-09T06:44:37.015Z,29.67
2018-10-09T06:47:05.496Z,40.08
2018-10-09T06:49:33.778Z,32.78
2018-10-09T06:52:02.054Z,35.40
2018-10-09T06:54:30.386Z,32.93
2018-10-09T06:56:58.369Z,26.27
2018-10-09T06:59:26.390Z,28.12
2018-10-09T07:01:54.777Z,30.17
2018-10-09T07:04:23.027Z,32.75
2018-10-09T07:06:51.083Z,26.15
2018-10-09T07:09:19.323Z,34.95
2018-10-09T07:11:47.415Z,34.08
2018-10-09T07:14:15.637Z,33.50
2018-10-09T07:16:43.747Z,37.60
2018-10-09T07:19:12.174Z,36.85
2018-10-09T07:21:40.193Z,34.30
2018-10-09T07:24:08.190Z,32.17
2018-10-09T07:26:36.222Z,37.20
2018-10-09T07:29:04.239Z,36.30
2018-10-09T07:31:32.255Z,41.33
2018-10-09T07:34:00.480Z,33.40
2018-10-09T07:36:28.473Z,32.25
2018-10-09T07:38:56.507Z,38.08
2018-10-09T07:41:24.697Z,30.60
2018-10-09T07:43:52.764Z,33.90
2018-10-09T07:46:20.802Z,32.80
2018-10-09T07:48:49.029Z,30.08
2018-10-09T07:51:17.043Z,31.23
2018-10-09T07:53:45.042Z,32.95
2018-10-09T07:56:13.348Z,38.92
2018-10-09T07:58:41.440Z,40.40
2018-10-09T08:01:09.481Z,38.15
2018-10-09T08:03:37.754Z,36.38
2018-10-09T08:06:05.927Z,35.83
2018-10-09T08:08:34.128Z,34.30
2018-10-09T08:11:02.287Z,31.30
2018-10-09T08:13:30.545Z,29.47
2018-10-09T08:15:58.767Z,34.07
2018-10-09T08:18:27.002Z,38.10
2018-10-09T08:20:55.079Z,37.07
2018-10-09T08:23:23.164Z,30.60
2018-10-09T08:25:51.527Z,31.77
2018-10-09T08:28:19.507Z,35.43
2018-10-09T08:30:47.552Z,33.08
2018-10-09T08:33:15.643Z,28.83
2018-10-09T08:35:43.661Z,37.47
2018-10-09T08:38:11.726Z,32.38
2018-10-09T08:40:40.255Z,32.98
2018-10-09T08:43:08.328Z,25.27
2018-10-09T08:45:36.351Z,26.17
2018-10-09T08:48:04.666Z,33.25
2018-10-09T08:50:32.679Z,28.92
2018-10-09T08:53:00.690Z,25.05
2018-10-09T08:55:28.736Z,32.60
2018-10-09T08:57:57.886Z,31.30
2018-10-09T09:00:25.956Z,33.45
2018-10-09T09:02:54.491Z,26.23
2018-10-09T09:05:22.510Z,32.42
2018-10-09T09:07:50.569Z,31.25
2018-10-09T09:10:18.638Z,28.62
2018-10-09T09:12:46.706Z,28.02
2018-10-09T09:15:15.145Z,29.52
2018-10-09T09:17:43.178Z,30.40
2018-10-09T09:20:11.233Z,35.45
2018-10-09T09:22:39.282Z,29.60
2018-10-09T09:25:07.352Z,32.35
2018-10-09T09:27:35.770Z,26.33
2018-10-09T09:30:03.839Z,29.15
2018-10-09T09:32:31.929Z,32.20
2018-10-09T09:34:59.959Z,35.48
2018-10-09T09:37:28.146Z,33.08
2018-10-09T09:39:56.152Z,29.42
2018-10-09T09:42:24.268Z,23.83
2018-10-09T09:44:52.304Z,25.97
2018-10-09T09:47:20.336Z,29.63
2018-10-09T09:49:48.387Z,28.15
2018-10-09T09:52:16.497Z,22.67
2018-10-09T09:54:45.549Z,24.55
2018-10-09T09:57:13.653Z,25.35
2018-10-09T09:59:42.017Z,27.77
2018-10-09T10:02:10.074Z,28.05
2018-10-09T10:04:38.126Z,23.98
2018-10-09T10:07:06.339Z,22.85
2018-10-09T10:09:34.426Z,20.05
2018-10-09T10:12:02.555Z,24.82
2018-10-09T10:14:31.167Z,19.37
2018-10-09T10:16:59.303Z,19.35
2018-10-09T10:19:27.314Z,17.23
2018-10-09T10:21:55.686Z,18.20
2018-10-09T10:24:23.735Z,20.00
2018-10-09T10:26:51.819Z,22.65
2018-10-09T10:29:20.325Z,18.62
2018-10-09T10:31:48.258Z,21.33
2018-10-09T10:34:16.270Z,19.32
2018-10-09T10:36:44.387Z,20.15
2018-10-09T10:39:13.041Z,21.65
2018-10-09T10:41:41.778Z,18.05
2018-10-09T10:44:10.274Z,25.60
2018-10-09T10:46:39.074Z,19.07
2018-10-09T10:49:10.970Z,23.02
2018-10-09T10:51:39.279Z,15.48
2018-10-09T10:54:07.311Z,23.95
2018-10-09T10:56:36.146Z,15.58
2018-10-09T10:59:04.436Z,15.13
2018-10-09T11:01:32.815Z,23.60
2018-10-09T11:04:01.069Z,14.75
2018-10-09T11:06:29.262Z,24.20
2018-10-09T11:08:57.269Z,14.83
2018-10-09T11:11:25.326Z,12.98
2018-10-09T11:13:53.375Z,12.35
2018-10-09T11:16:21.445Z,15.85
2018-10-09T11:18:49.807Z,14.87
2018-10-09T11:21:17.909Z,15.80
2018-10-09T11:23:45.826Z,18.32
2018-10-09T11:26:13.935Z,25.82
2018-10-09T11:28:42.001Z,21.07
2018-10-09T11:33:44.898Z,21.77
2018-10-09T11:36:13.006Z,22.82
2018-10-09T11:38:41.019Z,25.17
2018-10-09T11:41:09.114Z,13.43
2018-10-09T11:43:37.238Z,17.67
2018-10-09T11:46:05.259Z,15.68
2018-10-09T11:48:33.363Z,17.35
2018-10-09T11:51:01.403Z,13.68
2018-10-09T11:53:29.451Z,24.10
2018-10-09T11:55:57.464Z,24.45
2018-10-09T11:58:25.494Z,18.90
2018-10-09T12:00:55.427Z,14.38
2018-10-09T12:03:23.669Z,15.30
2018-10-09T12:05:51.778Z,12.20
2018-10-09T12:08:20.262Z,12.43
2018-10-09T12:10:48.451Z,24.25
2018-10-09T12:13:16.483Z,9.85
2018-10-09T12:15:44.541Z,9.10
2018-10-09T12:18:12.601Z,11.85
2018-10-09T12:20:40.815Z,14.98
2018-10-09T12:23:09.121Z,11.43
2018-10-09T12:25:37.144Z,14.10
2018-10-09T12:28:05.139Z,13.22
2018-10-09T12:30:33.147Z,9.75
2018-10-09T12:33:01.325Z,19.98
2018-10-09T12:35:29.350Z,12.10
2018-10-09T12:37:57.516Z,15.28
2018-10-09T12:40:25.551Z,13.62
2018-10-09T12:42:53.544Z,13.10
2018-10-09T12:45:22.139Z,14.30
2018-10-09T12:47:50.185Z,10.30
2018-10-09T12:50:18.302Z,14.10
2018-10-09T12:52:46.595Z,10.50
2018-10-09T12:55:15.261Z,18.95
2018-10-09T12:57:43.314Z,20.32
2018-10-09T13:00:13.053Z,17.45
2018-10-09T13:02:41.110Z,12.13
2018-10-09T13:05:09.515Z,12.50
2018-10-09T13:07:37.558Z,9.43
2018-10-09T13:10:05.820Z,16.90
2018-10-09T13:12:33.838Z,12.58
2018-10-09T13:15:02.031Z,15.58
2018-10-09T13:17:30.326Z,14.60
2018-10-09T13:19:58.346Z,15.75
2018-10-09T13:22:26.891Z,17.85
2018-10-09T13:24:54.692Z,14.28
2018-10-09T13:27:22.828Z,10.38
2018-10-09T13:29:50.943Z,11.08
2018-10-09T13:32:19.078Z,7.40
2018-10-09T13:34:47.078Z,13.05
2018-10-09T13:37:15.791Z,12.68
2018-10-09T13:39:43.983Z,9.18
2018-10-09T13:42:12.257Z,13.80
2018-10-09T13:44:40.458Z,12.37
2018-10-09T13:47:08.568Z,11.57
2018-10-09T13:49:36.590Z,17.75
2018-10-09T13:52:04.713Z,14.87
2018-10-09T13:54:32.759Z,15.43
2018-10-09T13:57:00.869Z,9.18
2018-10-09T13:59:28.902Z,17.62
2018-10-09T14:01:57.098Z,11.08
2018-10-09T14:04:25.102Z,9.58
2018-10-09T14:06:53.712Z,14.55
2018-10-09T14:09:21.824Z,32.83
2018-10-09T14:11:49.881Z,13.15
2018-10-09T14:14:18.173Z,12.37
2018-10-09T14:16:46.522Z,10.78
2018-10-09T14:19:14.547Z,13.13
2018-10-09T14:21:43.259Z,8.43
2018-10-09T14:24:12.105Z,9.58
2018-10-09T14:26:40.323Z,13.65
2018-10-09T14:29:08.391Z,15.63
2018-10-09T14:31:36.523Z,9.17
2018-10-09T14:34:04.589Z,13.03
2018-10-09T14:36:32.629Z,9.87
2018-10-09T14:39:00.771Z,11.60
2018-10-09T14:41:28.887Z,14.20
2018-10-09T14:43:57.691Z,12.53
2018-10-09T14:46:25.655Z,11.73
2018-10-09T14:48:53.659Z,16.30
2018-10-09T14:51:21.763Z,11.77
2018-10-09T14:53:49.751Z,10.37
2018-10-09T14:56:17.785Z,14.65
2018-10-09T14:58:46.092Z,12.63
2018-10-09T15:01:14.175Z,11.50
2018-10-09T15:03:42.474Z,11.70
2018-10-09T15:06:41.223Z,13.38
2018-10-09T15:09:11.434Z,11.95
2018-10-09T15:11:39.450Z,11.85
2018-10-09T15:14:08.325Z,13.45
2018-10-09T15:16:36.514Z,13.68
2018-10-09T15:19:05.058Z,12.15
2018-10-09T15:21:33.164Z,28.30
2018-10-09T15:24:01.193Z,14.40
2018-10-09T15:26:29.279Z,18.52
2018-10-09T15:28:57.466Z,14.68
2018-10-09T15:31:25.533Z,11.65
2018-10-09T15:33:53.575Z,10.68
2018-10-09T15:36:21.638Z,11.75
2018-10-09T15:38:50.175Z,9.70
2018-10-09T15:41:18.688Z,10.68
2018-10-09T15:43:46.790Z,13.10
2018-10-09T15:46:14.860Z,13.58
2018-10-09T15:48:43.250Z,12.18
2018-10-09T15:51:11.314Z,11.85
2018-10-09T15:53:39.347Z,23.62
2018-10-09T15:56:07.601Z,14.00
2018-10-09T15:58:35.607Z,14.73
2018-10-09T16:01:03.621Z,18.65
2018-10-09T16:03:31.770Z,35.33
2018-10-09T16:05:59.817Z,23.80
2018-10-09T16:08:27.836Z,17.20
2018-10-09T16:10:56.300Z,23.25
2018-10-09T16:13:24.360Z,18.50
2018-10-09T16:15:52.401Z,16.57
2018-10-09T16:18:20.494Z,34.67
2018-10-09T16:20:48.735Z,32.40
2018-10-09T16:23:16.968Z,17.50
2018-10-09T16:25:45.209Z,20.05
2018-10-09T16:28:13.321Z,20.40
2018-10-09T16:30:41.363Z,21.80
2018-10-09T16:33:09.420Z,29.02
2018-10-09T16:35:37.494Z,27.17
2018-10-09T16:38:05.572Z,22.52
2018-10-09T16:40:33.950Z,16.17
2018-10-09T16:43:01.927Z,23.40
2018-10-09T16:45:30.047Z,21.45
2018-10-09T16:47:58.267Z,22.73
2018-10-09T16:50:26.541Z,26.40
2018-10-09T16:52:54.544Z,20.88
2018-10-09T16:55:22.993Z,17.75
2018-10-09T16:57:51.070Z,27.25
2018-10-09T17:00:19.147Z,34.85
2018-10-09T17:02:47.274Z,18.42
2018-10-09T17:05:15.396Z,25.35
2018-10-09T17:07:43.522Z,26.50
2018-10-09T17:10:11.552Z,22.00
2018-10-09T17:12:39.794Z,25.95
2018-10-09T17:15:07.887Z,39.95
2018-10-09T17:17:36.142Z,32.28
2018-10-09T17:20:04.387Z,19.48
2018-10-09T17:22:32.613Z,35.92
2018-10-09T17:25:00.754Z,35.88
2018-10-09T17:27:28.774Z,26.87
2018-10-09T17:29:56.931Z,35.50
2018-10-09T17:32:24.991Z,29.70
2018-10-09T17:34:53.066Z,27.35
2018-10-09T17:37:21.136Z,22.50
2018-10-09T17:39:49.433Z,32.75
2018-10-09T17:42:17.480Z,44.48
2018-10-09T17:44:45.768Z,38.10
2018-10-09T17:47:17.233Z,43.40
2018-10-09T17:49:45.748Z,36.10
2018-10-09T17:52:13.966Z,24.45
2018-10-09T17:54:42.018Z,29.20
2018-10-09T17:59:53.034Z,27.73
2018-10-09T18:02:21.243Z,25.02
2018-10-09T18:04:49.581Z,37.35
2018-10-09T18:07:17.847Z,36.15
2018-10-09T18:09:46.550Z,27.35
2018-10-09T18:12:14.791Z,32.95
2018-10-09T18:14:43.164Z,24.70
2018-10-09T18:17:11.164Z,25.37
2018-10-09T18:19:39.452Z,37.55
2018-10-09T18:22:07.601Z,30.82
2018-10-09T18:24:35.672Z,31.80
2018-10-09T18:27:03.706Z,28.07
2018-10-09T18:29:32.242Z,30.60
2018-10-09T18:32:00.340Z,28.27
2018-10-09T18:34:28.378Z,23.02
2018-10-09T18:36:56.430Z,27.73
2018-10-09T18:39:24.456Z,29.42
2018-10-09T18:41:52.662Z,29.52
2018-10-09T18:44:20.675Z,31.35
2018-10-09T18:46:48.710Z,30.25
2018-10-09T18:49:16.812Z,25.23
2018-10-09T18:51:45.135Z,28.85
2018-10-09T18:54:13.397Z,25.37
2018-10-09T18:56:41.485Z,34.35
2018-10-09T18:59:09.702Z,37.48
2018-10-09T19:01:37.767Z,29.85
2018-10-09T19:04:06.287Z,35.20
2018-10-09T19:06:34.531Z,28.85
2018-10-09T19:09:03.054Z,28.57
2018-10-09T19:11:31.064Z,31.17
2018-10-09T19:13:59.133Z,27.48
2018-10-09T19:16:27.402Z,29.45
2018-10-09T19:18:55.438Z,31.37
2018-10-09T19:21:23.976Z,29.77
2018-10-09T19:23:52.138Z,37.40
2018-10-09T19:26:20.110Z,26.52
2018-10-09T19:28:48.606Z,34.08
2018-10-09T19:31:16.883Z,33.15
2018-10-09T19:33:45.039Z,31.77
2018-10-09T19:36:13.288Z,35.20
2018-10-09T19:38:41.366Z,40.13
2018-10-09T19:41:09.612Z,31.17
2018-10-09T19:43:37.844Z,40.23
2018-10-09T19:46:05.922Z,32.67
2018-10-09T19:48:34.211Z,27.95
2018-10-09T19:51:02.596Z,32.40
2018-10-09T19:53:30.846Z,38.98
2018-10-09T19:55:59.394Z,33.85
2018-10-09T19:58:27.715Z,33.08
2018-10-09T20:00:55.740Z,38.20
2018-10-09T20:03:23.743Z,36.28
2018-10-09T20:05:52.126Z,37.08
2018-10-09T20:08:20.223Z,35.48
2018-10-09T20:10:48.272Z,34.70
2018-10-09T20:13:22.128Z,40.40
2018-10-09T20:15:50.357Z,31.62
2018-10-09T20:18:18.621Z,32.98
2018-10-09T20:20:46.679Z,35.13
2018-10-09T20:23:14.758Z,35.83
2018-10-09T20:25:42.758Z,43.48
2018-10-09T20:28:10.836Z,41.68
2018-10-09T20:30:38.904Z,45.85
2018-10-09T20:33:07.053Z,43.63
2018-10-09T20:35:35.686Z,43.00
2018-10-09T20:38:03.707Z,38.05
2018-10-09T20:40:31.925Z,44.10
2018-10-09T20:43:00.147Z,37.28
2018-10-09T20:45:28.171Z,32.80
2018-10-09T20:47:56.200Z,40.78
2018-10-09T20:50:24.435Z,37.38
2018-10-09T20:52:52.434Z,39.70
2018-10-09T20:55:20.418Z,49.88
2018-10-09T20:57:48.430Z,36.00
2018-10-09T21:00:16.679Z,41.37
2018-10-09T21:02:44.751Z,35.58
2018-10-09T21:05:13.036Z,42.95
2018-10-09T21:07:41.062Z,42.35
2018-10-09T21:10:09.742Z,36.03
2018-10-09T21:12:38.236Z,44.27
2018-10-09T21:15:06.274Z,43.75
2018-10-09T21:17:34.616Z,44.50
2018-10-09T21:20:03.178Z,36.58
2018-10-09T21:22:31.347Z,42.85
2018-10-09T21:24:59.494Z,42.05
2018-10-09T21:27:27.530Z,45.33
2018-10-09T21:29:55.631Z,38.80
2018-10-09T21:32:23.630Z,46.35
2018-10-09T21:34:51.922Z,42.73
2018-10-09T21:37:19.963Z,41.92
2018-10-09T21:39:48.046Z,46.63
2018-10-09T21:42:16.169Z,38.85
2018-10-09T21:44:44.525Z,50.75
2018-10-09T21:47:12.554Z,46.02
2018-10-09T21:49:40.639Z,46.42
2018-10-09T21:52:08.897Z,49.50
2018-10-09T21:54:36.923Z,42.70
2018-10-09T21:57:04.988Z,43.42
2018-10-09T21:59:33.016Z,41.60
2018-10-09T22:02:01.175Z,39.50
2018-10-09T22:04:29.214Z,49.25
2018-10-09T22:06:57.225Z,40.33
2018-10-09T22:09:25.507Z,38.83
2018-10-09T22:11:53.938Z,43.20
2018-10-09T22:14:22.567Z,44.40
2018-10-09T22:16:50.591Z,40.43
2018-10-09T22:19:18.635Z,40.55
2018-10-09T22:21:47.410Z,40.70
2018-10-09T22:24:15.505Z,51.28
2018-10-09T22:26:43.530Z,49.50
2018-10-09T22:29:11.550Z,42.40
2018-10-09T22:31:39.630Z,42.05
2018-10-09T22:34:08.378Z,41.48
2018-10-09T22:36:36.466Z,35.43
2018-10-09T22:39:07.089Z,39.00
2018-10-09T22:41:35.146Z,46.73
2018-10-09T22:44:03.233Z,44.05
2018-10-09T22:46:31.424Z,44.83
2018-10-09T22:48:59.450Z,39.20
2018-10-09T22:51:27.537Z,49.98
2018-10-09T22:53:55.810Z,45.38
2018-10-09T22:56:23.822Z,44.60
2018-10-09T22:58:51.862Z,44.88
2018-10-09T23:01:20.034Z,46.53
2018-10-09T23:03:48.067Z,45.10
2018-10-09T23:06:16.129Z,45.52
2018-10-09T23:08:44.663Z,49.45
2018-10-09T23:11:12.685Z,42.55
2018-10-09T23:13:40.690Z,40.00
2018-10-09T23:16:09.275Z,39.98
2018-10-09T23:18:37.448Z,49.63
2018-10-09T23:21:05.564Z,39.15
2018-10-09T23:23:33.882Z,47.33
2018-10-09T23:26:01.912Z,50.15
2018-10-09T23:28:29.926Z,42.48
2018-10-09T23:30:58.048Z,43.92
2018-10-09T23:33:26.233Z,42.57
2018-10-09T23:35:54.272Z,40.85
2018-10-09T23:38:22.322Z,42.13
2018-10-09T23:40:50.440Z,41.88
2018-10-09T23:43:18.566Z,39.65
2018-10-09T23:45:47.154Z,41.85
2018-10-09T23:48:15.211Z,42.98
2018-10-09T23:50:43.390Z,42.25
2018-10-09T23:53:11.519Z,37.88
2018-10-09T23:55:39.544Z,48.83
2018-10-09T23:58:07.706Z,39.30
